sensor_id;sensor_type;location;lat;lon;timestamp;pressure;altitude;pressure_sealevel;temperature;humidity
7441;BME280;29616;51.950;8.572;2023-04-04T00:01:29;101430.16;;;0.67;100.00
7441;BME280;29616;51.950;8.572;2023-04-04T00:03:59;101431.03;;;0.68;100.00
7441;BME280;29616;51.950;8.572;2023-04-04T00:06:29;101431.25;;;0.61;100.00
7441;BME280;29616;51.950;8.572;2023-04-04T00:08:59;101427.75;;;0.59;100.00
7441;BME280;29616;51.950;8.572;2023-04-04T00:11:27;101420.09;;;0.49;100.00
7441;BME280;29616;51.950;8.572;2023-04-04T00:13:55;101433.56;;;0.49;100.00
7441;BME280;29616;51.950;8.572;2023-04-04T00:16:25;101426.25;;;0.52;100.00
7441;BME280;29616;51.950;8.572;2023-04-04T00:18:53;101433.81;;;0.66;100.00
7441;BME280;29616;51.950;8.572;2023-04-04T00:21:22;101430.03;;;0.70;100.00
7441;BME280;29616;51.950;8.572;2023-04-04T00:23:55;101431.00;;;0.69;100.00
7441;BME280;29616;51.950;8.572;2023-04-04T00:26:25;101428.00;;;0.77;100.00
7441;BME280;29616;51.950;8.572;2023-04-04T00:28:56;101424.44;;;0.76;100.00
7441;BME280;29616;51.950;8.572;2023-04-04T00:31:25;101410.50;;;0.65;100.00
7441;BME280;29616;51.950;8.572;2023-04-04T00:33:56;101429.00;;;0.74;100.00
7441;BME280;29616;51.950;8.572;2023-04-04T00:36:24;101417.47;;;0.71;100.00
7441;BME280;29616;51.950;8.572;2023-04-04T00:38:56;101417.47;;;0.71;100.00
7441;BME280;29616;51.950;8.572;2023-04-04T00:41:25;101414.97;;;0.66;100.00
7441;BME280;29616;51.950;8.572;2023-04-04T00:43:54;101423.97;;;0.65;100.00
7441;BME280;29616;51.950;8.572;2023-04-04T00:46:23;101417.22;;;0.53;100.00
7441;BME280;29616;51.950;8.572;2023-04-04T00:48:52;101411.22;;;0.47;100.00
7441;BME280;29616;51.950;8.572;2023-04-04T00:51:20;101400.56;;;0.44;100.00
7441;BME280;29616;51.950;8.572;2023-04-04T00:53:50;101411.31;;;0.44;100.00
7441;BME280;29616;51.950;8.572;2023-04-04T00:56:21;101414.25;;;0.38;100.00
7441;BME280;29616;51.950;8.572;2023-04-04T00:58:50;101410.44;;;0.43;100.00
7441;BME280;29616;51.950;8.572;2023-04-04T01:01:19;101415.19;;;0.37;100.00
7441;BME280;29616;51.950;8.572;2023-04-04T01:03:47;101412.94;;;0.25;100.00
7441;BME280;29616;51.950;8.572;2023-04-04T01:06:17;101405.06;;;0.20;100.00
7441;BME280;29616;51.950;8.572;2023-04-04T01:08:46;101410.09;;;0.29;100.00
7441;BME280;29616;51.950;8.572;2023-04-04T01:11:15;101409.50;;;0.21;100.00
7441;BME280;29616;51.950;8.572;2023-04-04T01:13:46;101399.28;;;0.06;100.00
7441;BME280;29616;51.950;8.572;2023-04-04T01:16:17;101404.94;;;-0.02;100.00
7441;BME280;29616;51.950;8.572;2023-04-04T01:18:47;101409.94;;;-0.16;100.00
7441;BME280;29616;51.950;8.572;2023-04-04T01:21:19;101403.81;;;-0.19;100.00
7441;BME280;29616;51.950;8.572;2023-04-04T01:23:51;101402.25;;;-0.26;100.00
7441;BME280;29616;51.950;8.572;2023-04-04T01:26:31;101411.09;;;-0.49;100.00
7441;BME280;29616;51.950;8.572;2023-04-04T01:29:02;101406.91;;;-0.57;100.00
7441;BME280;29616;51.950;8.572;2023-04-04T01:31:33;101407.09;;;-0.62;100.00
7441;BME280;29616;51.950;8.572;2023-04-04T01:34:13;101405.13;;;-0.57;100.00
7441;BME280;29616;51.950;8.572;2023-04-04T01:36:46;101398.25;;;-0.66;100.00
7441;BME280;29616;51.950;8.572;2023-04-04T01:39:20;101400.50;;;-0.80;100.00
7441;BME280;29616;51.950;8.572;2023-04-04T01:41:52;101396.31;;;-0.88;100.00
7441;BME280;29616;51.950;8.572;2023-04-04T01:44:22;101394.28;;;-0.80;100.00
7441;BME280;29616;51.950;8.572;2023-04-04T01:46:52;101393.84;;;-0.68;100.00
7441;BME280;29616;51.950;8.572;2023-04-04T01:49:22;101387.31;;;-0.59;100.00
7441;BME280;29616;51.950;8.572;2023-04-04T01:51:51;101381.66;;;-0.52;100.00
7441;BME280;29616;51.950;8.572;2023-04-04T01:54:20;101386.63;;;-0.66;100.00
7441;BME280;29616;51.950;8.572;2023-04-04T01:56:49;101383.56;;;-0.82;100.00
7441;BME280;29616;51.950;8.572;2023-04-04T01:59:21;101397.00;;;-0.82;100.00
7441;BME280;29616;51.950;8.572;2023-04-04T02:01:50;101389.75;;;-0.80;100.00
7441;BME280;29616;51.950;8.572;2023-04-04T02:04:20;101376.28;;;-0.78;100.00
7441;BME280;29616;51.950;8.572;2023-04-04T02:06:49;101392.66;;;-0.86;100.00
7441;BME280;29616;51.950;8.572;2023-04-04T02:09:18;101378.44;;;-0.89;100.00
7441;BME280;29616;51.950;8.572;2023-04-04T02:11:46;101378.25;;;-0.83;100.00
7441;BME280;29616;51.950;8.572;2023-04-04T02:14:17;101380.78;;;-0.79;100.00
7441;BME280;29616;51.950;8.572;2023-04-04T02:16:47;101387.94;;;-0.79;100.00
7441;BME280;29616;51.950;8.572;2023-04-04T02:19:18;101381.75;;;-0.81;100.00
7441;BME280;29616;51.950;8.572;2023-04-04T02:21:48;101376.19;;;-0.75;100.00
7441;BME280;29616;51.950;8.572;2023-04-04T02:24:18;101372.66;;;-0.77;100.00
7441;BME280;29616;51.950;8.572;2023-04-04T02:26:46;101383.22;;;-0.71;100.00
7441;BME280;29616;51.950;8.572;2023-04-04T02:29:16;101380.41;;;-0.68;100.00
7441;BME280;29616;51.950;8.572;2023-04-04T02:31:47;101378.78;;;-0.46;100.00
7441;BME280;29616;51.950;8.572;2023-04-04T02:34:17;101369.88;;;-0.48;100.00
7441;BME280;29616;51.950;8.572;2023-04-04T02:36:48;101379.03;;;-0.53;100.00
7441;BME280;29616;51.950;8.572;2023-04-04T02:39:20;101368.13;;;-0.49;100.00
7441;BME280;29616;51.950;8.572;2023-04-04T02:41:50;101370.00;;;-0.51;100.00
7441;BME280;29616;51.950;8.572;2023-04-04T02:44:20;101372.19;;;-0.64;100.00
7441;BME280;29616;51.950;8.572;2023-04-04T02:46:52;101374.25;;;-0.72;100.00
7441;BME280;29616;51.950;8.572;2023-04-04T02:49:27;101364.59;;;-0.77;100.00
7441;BME280;29616;51.950;8.572;2023-04-04T02:51:57;101374.53;;;-0.79;100.00
7441;BME280;29616;51.950;8.572;2023-04-04T02:54:31;101366.38;;;-0.76;100.00
7441;BME280;29616;51.950;8.572;2023-04-04T02:56:59;101360.81;;;-0.70;100.00
7441;BME280;29616;51.950;8.572;2023-04-04T02:59:29;101362.00;;;-0.79;100.00
7441;BME280;29616;51.950;8.572;2023-04-04T03:01:59;101360.44;;;-0.86;100.00
7441;BME280;29616;51.950;8.572;2023-04-04T03:04:30;101360.47;;;-0.87;100.00
7441;BME280;29616;51.950;8.572;2023-04-04T03:06:59;101361.63;;;-0.94;100.00
7441;BME280;29616;51.950;8.572;2023-04-04T03:09:29;101353.56;;;-0.94;100.00
7441;BME280;29616;51.950;8.572;2023-04-04T03:11:57;101351.19;;;-1.03;100.00
7441;BME280;29616;51.950;8.572;2023-04-04T03:14:29;101346.22;;;-1.15;100.00
7441;BME280;29616;51.950;8.572;2023-04-04T03:17:00;101347.13;;;-1.16;100.00
7441;BME280;29616;51.950;8.572;2023-04-04T03:19:30;101342.09;;;-1.26;100.00
7441;BME280;29616;51.950;8.572;2023-04-04T03:22:00;101343.72;;;-1.22;100.00
7441;BME280;29616;51.950;8.572;2023-04-04T03:24:31;101341.13;;;-1.25;100.00
7441;BME280;29616;51.950;8.572;2023-04-04T03:27:01;101342.09;;;-1.26;100.00
7441;BME280;29616;51.950;8.572;2023-04-04T03:29:30;101335.34;;;-1.39;100.00
7441;BME280;29616;51.950;8.572;2023-04-04T03:31:59;101343.81;;;-1.25;100.00
7441;BME280;29616;51.950;8.572;2023-04-04T03:34:27;101342.19;;;-1.29;100.00
7441;BME280;29616;51.950;8.572;2023-04-04T03:36:57;101326.38;;;-1.38;100.00
7441;BME280;29616;51.950;8.572;2023-04-04T03:39:27;101331.81;;;-1.41;100.00
7441;BME280;29616;51.950;8.572;2023-04-04T03:41:56;101337.25;;;-1.42;100.00
7441;BME280;29616;51.950;8.572;2023-04-04T03:44:25;101330.09;;;-1.42;100.00
7441;BME280;29616;51.950;8.572;2023-04-04T03:46:55;101321.06;;;-1.39;100.00
7441;BME280;29616;51.950;8.572;2023-04-04T03:49:27;101334.94;;;-1.27;100.00
7441;BME280;29616;51.950;8.572;2023-04-04T03:51:56;101331.53;;;-1.32;100.00
7441;BME280;29616;51.950;8.572;2023-04-04T03:54:26;101322.16;;;-1.46;100.00
7441;BME280;29616;51.950;8.572;2023-04-04T03:56:56;101328.13;;;-1.37;100.00
7441;BME280;29616;51.950;8.572;2023-04-04T03:59:25;101332.53;;;-1.34;100.00
7441;BME280;29616;51.950;8.572;2023-04-04T04:01:53;101329.69;;;-1.30;100.00
7441;BME280;29616;51.950;8.572;2023-04-04T04:04:22;101324.31;;;-1.30;100.00
7441;BME280;29616;51.950;8.572;2023-04-04T04:06:52;101324.31;;;-1.30;100.00
7441;BME280;29616;51.950;8.572;2023-04-04T04:09:23;101330.72;;;-1.34;100.00
7441;BME280;29616;51.950;8.572;2023-04-04T04:11:51;101327.16;;;-1.34;100.00
7441;BME280;29616;51.950;8.572;2023-04-04T04:14:20;101323.59;;;-1.35;100.00
7441;BME280;29616;51.950;8.572;2023-04-04T04:16:50;101320.75;;;-1.30;100.00
7441;BME280;29616;51.950;8.572;2023-04-04T04:19:21;101321.59;;;-1.28;100.00
7441;BME280;29616;51.950;8.572;2023-04-04T04:21:51;101314.63;;;-1.34;100.00
7441;BME280;29616;51.950;8.572;2023-04-04T04:24:19;101318.94;;;-1.30;100.00
7441;BME280;29616;51.950;8.572;2023-04-04T04:26:49;101311.72;;;-1.28;100.00
7441;BME280;29616;51.950;8.572;2023-04-04T04:29:19;101320.81;;;-1.32;100.00
7441;BME280;29616;51.950;8.572;2023-04-04T04:31:47;101323.84;;;-1.42;100.00
7441;BME280;29616;51.950;8.572;2023-04-04T04:34:16;101319.44;;;-1.45;100.00
7441;BME280;29616;51.950;8.572;2023-04-04T04:36:47;101309.78;;;-1.50;100.00
7441;BME280;29616;51.950;8.572;2023-04-04T04:39:25;101322.22;;;-1.48;100.00
7441;BME280;29616;51.950;8.572;2023-04-04T04:42:17;101315.81;;;-1.44;100.00
7441;BME280;29616;51.950;8.572;2023-04-04T04:44:55;101301.75;;;-1.50;100.00
7441;BME280;29616;51.950;8.572;2023-04-04T04:47:25;101318.56;;;-1.45;100.00
7441;BME280;29616;51.950;8.572;2023-04-04T04:49:54;101322.16;;;-1.46;100.00
7441;BME280;29616;51.950;8.572;2023-04-04T04:52:35;101317.00;;;-1.52;100.00
7441;BME280;29616;51.950;8.572;2023-04-04T04:55:07;101325.88;;;-1.50;100.00
7441;BME280;29616;51.950;8.572;2023-04-04T04:57:42;101316.38;;;-1.60;100.00
7441;BME280;29616;51.950;8.572;2023-04-04T05:00:17;101324.34;;;-1.59;100.00
7441;BME280;29616;51.950;8.572;2023-04-04T05:02:47;101313.94;;;-1.68;100.00
7441;BME280;29616;51.950;8.572;2023-04-04T05:05:23;101324.25;;;-1.56;100.00
7441;BME280;29616;51.950;8.572;2023-04-04T05:07:56;101317.78;;;-1.49;100.00
7441;BME280;29616;51.950;8.572;2023-04-04T05:10:28;101325.53;;;-1.40;100.00
7441;BME280;29616;51.950;8.572;2023-04-04T05:12:56;101319.09;;;-1.34;100.00
7441;BME280;29616;51.950;8.572;2023-04-04T05:15:32;101320.81;;;-1.32;100.00
7441;BME280;29616;51.950;8.572;2023-04-04T05:18:02;101303.94;;;-1.35;100.00
7441;BME280;29616;51.950;8.572;2023-04-04T05:20:30;101318.75;;;-1.24;100.00
7441;BME280;29616;51.950;8.572;2023-04-04T05:23:02;101320.31;;;-1.16;100.00
7441;BME280;29616;51.950;8.572;2023-04-04T05:25:38;101329.59;;;-1.00;100.00
7441;BME280;29616;51.950;8.572;2023-04-04T05:28:07;101328.38;;;-0.90;100.00
7441;BME280;29616;51.950;8.572;2023-04-04T05:30:37;101324.47;;;-0.80;100.00
7441;BME280;29616;51.950;8.572;2023-04-04T05:33:14;101336.31;;;-0.61;100.00
7441;BME280;29616;51.950;8.572;2023-04-04T05:35:52;101335.91;;;-0.49;100.00
7441;BME280;29616;51.950;8.572;2023-04-04T05:38:20;101336.22;;;-0.33;100.00
7441;BME280;29616;51.950;8.572;2023-04-04T05:40:53;101346.22;;;-0.12;100.00
7441;BME280;29616;51.950;8.572;2023-04-04T05:43:24;101338.34;;;0.07;100.00
7441;BME280;29616;51.950;8.572;2023-04-04T05:46:00;101339.34;;;0.27;100.00
7441;BME280;29616;51.950;8.572;2023-04-04T05:48:35;101341.63;;;0.61;100.00
7441;BME280;29616;51.950;8.572;2023-04-04T05:51:05;101343.19;;;0.88;100.00
7441;BME280;29616;51.950;8.572;2023-04-04T05:53:58;101351.06;;;1.14;100.00
7441;BME280;29616;51.950;8.572;2023-04-04T05:56:34;101344.66;;;1.39;100.00
7441;BME280;29616;51.950;8.572;2023-04-04T05:59:06;101343.47;;;1.66;100.00
7441;BME280;29616;51.950;8.572;2023-04-04T06:01:42;101339.38;;;1.77;100.00
7441;BME280;29616;51.950;8.572;2023-04-04T06:04:13;101351.75;;;1.81;100.00
7441;BME280;29616;51.950;8.572;2023-04-04T06:06:44;101348.53;;;1.94;100.00
7441;BME280;29616;51.950;8.572;2023-04-04T06:09:13;101356.31;;;2.20;100.00
7441;BME280;29616;51.950;8.572;2023-04-04T06:11:43;101364.09;;;2.46;100.00
7441;BME280;29616;51.950;8.572;2023-04-04T06:14:12;101364.25;;;2.80;100.00
7441;BME280;29616;51.950;8.572;2023-04-04T06:16:42;101360.72;;;3.16;100.00
7441;BME280;29616;51.950;8.572;2023-04-04T06:19:14;101367.84;;;3.35;100.00
7441;BME280;29616;51.950;8.572;2023-04-04T06:21:43;101363.72;;;3.62;100.00
7441;BME280;29616;51.950;8.572;2023-04-04T06:24:13;101370.16;;;3.94;100.00
7441;BME280;29616;51.950;8.572;2023-04-04T06:26:44;101365.13;;;4.21;100.00
7441;BME280;29616;51.950;8.572;2023-04-04T06:29:13;101363.47;;;4.67;100.00
7441;BME280;29616;51.950;8.572;2023-04-04T06:31:43;101361.41;;;4.87;100.00
7441;BME280;29616;51.950;8.572;2023-04-04T06:34:19;101372.22;;;4.87;100.00
7441;BME280;29616;51.950;8.572;2023-04-04T06:36:53;101376.78;;;4.87;100.00
7441;BME280;29616;51.950;8.572;2023-04-04T06:39:27;101382.78;;;4.76;100.00
7441;BME280;29616;51.950;8.572;2023-04-04T06:42:02;101370.50;;;4.86;100.00
7441;BME280;29616;51.950;8.572;2023-04-04T06:44:33;101380.56;;;5.31;100.00
7441;BME280;29616;51.950;8.572;2023-04-04T06:47:03;101390.28;;;5.65;100.00
7441;BME280;29616;51.950;8.572;2023-04-04T06:49:32;101364.00;;;6.11;100.00
7441;BME280;29616;51.950;8.572;2023-04-04T06:52:01;101378.72;;;6.65;100.00
7441;BME280;29616;51.950;8.572;2023-04-04T06:54:30;101381.88;;;7.00;100.00
7441;BME280;29616;51.950;8.572;2023-04-04T06:57:01;101379.34;;;7.38;100.00
7441;BME280;29616;51.950;8.572;2023-04-04T06:59:31;101382.88;;;7.79;100.00
7441;BME280;29616;51.950;8.572;2023-04-04T07:02:00;101373.22;;;8.39;100.00
7441;BME280;29616;51.950;8.572;2023-04-04T07:04:29;101375.50;;;8.83;100.00
7441;BME280;29616;51.950;8.572;2023-04-04T07:07:01;101377.13;;;9.22;100.00
7441;BME280;29616;51.950;8.572;2023-04-04T07:09:30;101376.66;;;9.04;86.40
7441;BME280;29616;51.950;8.572;2023-04-04T07:11:59;101375.00;;;9.38;93.58
7441;BME280;29616;51.950;8.572;2023-04-04T07:14:29;101369.72;;;9.48;85.52
7441;BME280;29616;51.950;8.572;2023-04-04T07:16:59;101370.66;;;9.83;86.36
7441;BME280;29616;51.950;8.572;2023-04-04T07:19:40;101368.63;;;9.98;74.14
7441;BME280;29616;51.950;8.572;2023-04-04T07:22:12;101362.06;;;10.35;62.82
7441;BME280;29616;51.950;8.572;2023-04-04T07:24:40;101360.41;;;10.21;69.97
7441;BME280;29616;51.950;8.572;2023-04-04T07:27:10;101355.03;;;10.20;73.00
7441;BME280;29616;51.950;8.572;2023-04-04T07:29:44;101370.41;;;10.56;69.58
7441;BME280;29616;51.950;8.572;2023-04-04T07:32:14;101367.09;;;11.39;63.06
7441;BME280;29616;51.950;8.572;2023-04-04T07:34:45;101366.84;;;11.42;58.40
7441;BME280;29616;51.950;8.572;2023-04-04T07:37:13;101366.41;;;11.80;62.01
7441;BME280;29616;51.950;8.572;2023-04-04T07:39:43;101364.84;;;11.55;59.75
7441;BME280;29616;51.950;8.572;2023-04-04T07:42:12;101354.50;;;11.70;58.22
7441;BME280;29616;51.950;8.572;2023-04-04T07:44:40;101360.97;;;12.22;57.12
7441;BME280;29616;51.950;8.572;2023-04-04T07:47:11;101367.53;;;12.09;56.27
7441;BME280;29616;51.950;8.572;2023-04-04T07:49:41;101359.00;;;11.60;54.06
7441;BME280;29616;51.950;8.572;2023-04-04T07:52:10;101349.47;;;11.86;57.57
7441;BME280;29616;51.950;8.572;2023-04-04T07:54:39;101355.09;;;12.47;55.99
7441;BME280;29616;51.950;8.572;2023-04-04T07:57:08;101361.34;;;12.79;52.09
7441;BME280;29616;51.950;8.572;2023-04-04T07:59:38;101356.25;;;13.05;52.28
7441;BME280;29616;51.950;8.572;2023-04-04T08:02:07;101347.72;;;13.48;52.63
7441;BME280;29616;51.950;8.572;2023-04-04T08:04:38;101352.00;;;12.91;51.62
7441;BME280;29616;51.950;8.572;2023-04-04T08:07:08;101346.25;;;12.94;51.21
7441;BME280;29616;51.950;8.572;2023-04-04T08:09:36;101351.78;;;13.44;49.58
7441;BME280;29616;51.950;8.572;2023-04-04T08:12:05;101354.56;;;14.11;47.38
7441;BME280;29616;51.950;8.572;2023-04-04T08:14:35;101362.00;;;13.22;49.67
7441;BME280;29616;51.950;8.572;2023-04-04T08:17:04;101363.53;;;13.74;48.67
7441;BME280;29616;51.950;8.572;2023-04-04T08:19:35;101357.22;;;14.78;44.34
7441;BME280;29616;51.950;8.572;2023-04-04T08:22:06;101363.13;;;14.36;45.58
7441;BME280;29616;51.950;8.572;2023-04-04T08:24:35;101350.38;;;14.16;44.92
7441;BME280;29616;51.950;8.572;2023-04-04T08:27:05;101362.41;;;13.96;45.94
7441;BME280;29616;51.950;8.572;2023-04-04T08:29:34;101355.31;;;14.41;45.19
7441;BME280;29616;51.950;8.572;2023-04-04T08:32:05;101351.22;;;15.29;44.10
7441;BME280;29616;51.950;8.572;2023-04-04T08:34:36;101354.13;;;15.27;43.91
7441;BME280;29616;51.950;8.572;2023-04-04T08:37:06;101353.81;;;14.56;43.84
7441;BME280;29616;51.950;8.572;2023-04-04T08:39:35;101355.88;;;13.78;43.19
7441;BME280;29616;51.950;8.572;2023-04-04T08:42:06;101352.69;;;14.30;44.00
7441;BME280;29616;51.950;8.572;2023-04-04T08:44:36;101352.84;;;14.38;44.88
7441;BME280;29616;51.950;8.572;2023-04-04T08:47:07;101360.03;;;16.04;41.80
7441;BME280;29616;51.950;8.572;2023-04-04T08:49:37;101364.69;;;16.47;41.50
7441;BME280;29616;51.950;8.572;2023-04-04T08:52:11;101355.66;;;15.84;41.26
7441;BME280;29616;51.950;8.572;2023-04-04T08:54:41;101354.41;;;14.60;42.41
7441;BME280;29616;51.950;8.572;2023-04-04T08:57:10;101357.75;;;15.00;42.06
7441;BME280;29616;51.950;8.572;2023-04-04T08:59:39;101346.91;;;14.14;42.54
7441;BME280;29616;51.950;8.572;2023-04-04T09:02:14;101352.41;;;15.53;42.59
7441;BME280;29616;51.950;8.572;2023-04-04T09:04:44;101351.13;;;14.84;42.18
7441;BME280;29616;51.950;8.572;2023-04-04T09:07:32;101362.09;;;14.93;42.87
7441;BME280;29616;51.950;8.572;2023-04-04T09:10:07;101348.97;;;15.14;42.69
7441;BME280;29616;51.950;8.572;2023-04-04T09:12:40;101360.69;;;16.24;41.16
7441;BME280;29616;51.950;8.572;2023-04-04T09:15:11;101354.00;;;15.56;42.14
7441;BME280;29616;51.950;8.572;2023-04-04T09:17:40;101359.03;;;14.60;42.04
7441;BME280;29616;51.950;8.572;2023-04-04T09:20:33;101365.31;;;14.89;41.88
7441;BME280;29616;51.950;8.572;2023-04-04T09:23:05;101363.97;;;14.27;42.64
7441;BME280;29616;51.950;8.572;2023-04-04T09:25:35;101354.41;;;14.22;42.22
7441;BME280;29616;51.950;8.572;2023-04-04T09:28:04;101352.72;;;13.23;44.05
7441;BME280;29616;51.950;8.572;2023-04-04T09:30:34;101349.75;;;13.46;44.73
7441;BME280;29616;51.950;8.572;2023-04-04T09:33:06;101325.91;;;14.13;44.16
7441;BME280;29616;51.950;8.572;2023-04-04T09:35:37;101349.66;;;14.43;43.38
7441;BME280;29616;51.950;8.572;2023-04-04T09:38:09;101341.78;;;13.33;44.46
7441;BME280;29616;51.950;8.572;2023-04-04T09:40:40;101348.94;;;13.64;46.22
7441;BME280;29616;51.950;8.572;2023-04-04T09:43:09;101353.56;;;14.40;43.11
7441;BME280;29616;51.950;8.572;2023-04-04T09:45:43;101346.78;;;14.81;42.24
7441;BME280;29616;51.950;8.572;2023-04-04T09:48:12;101349.22;;;14.28;43.16
7441;BME280;29616;51.950;8.572;2023-04-04T09:50:45;101347.69;;;13.28;43.53
7441;BME280;29616;51.950;8.572;2023-04-04T09:53:16;101348.94;;;13.15;44.97
7441;BME280;29616;51.950;8.572;2023-04-04T09:55:48;101348.06;;;13.92;45.20
7441;BME280;29616;51.950;8.572;2023-04-04T09:58:17;101344.03;;;13.68;44.77
7441;BME280;29616;51.950;8.572;2023-04-04T10:00:49;101346.97;;;13.26;44.08
7441;BME280;29616;51.950;8.572;2023-04-04T10:03:21;101343.41;;;13.45;44.70
7441;BME280;29616;51.950;8.572;2023-04-04T10:05:58;101350.31;;;13.40;43.88
7441;BME280;29616;51.950;8.572;2023-04-04T10:08:29;101354.44;;;12.85;45.00
7441;BME280;29616;51.950;8.572;2023-04-04T10:11:00;101338.28;;;12.61;46.10
7441;BME280;29616;51.950;8.572;2023-04-04T10:13:39;101337.66;;;13.08;44.92
7441;BME280;29616;51.950;8.572;2023-04-04T10:16:11;101338.72;;;13.17;45.65
7441;BME280;29616;51.950;8.572;2023-04-04T10:18:40;101333.13;;;13.47;44.27
7441;BME280;29616;51.950;8.572;2023-04-04T10:21:09;101325.50;;;13.70;42.78
7441;BME280;29616;51.950;8.572;2023-04-04T10:23:45;101320.56;;;13.73;43.36
7441;BME280;29616;51.950;8.572;2023-04-04T10:26:15;101311.31;;;13.84;43.41
7441;BME280;29616;51.950;8.572;2023-04-04T10:28:43;101311.09;;;13.18;45.60
7441;BME280;29616;51.950;8.572;2023-04-04T10:31:19;101291.34;;;13.34;45.42
7441;BME280;29616;51.950;8.572;2023-04-04T10:33:55;101304.19;;;13.14;46.22
7441;BME280;29616;51.950;8.572;2023-04-04T10:36:29;101316.94;;;12.34;45.85
7441;BME280;29616;51.950;8.572;2023-04-04T10:39:07;101301.28;;;13.25;44.73
7441;BME280;29616;51.950;8.572;2023-04-04T10:41:40;101302.59;;;13.31;43.86
7441;BME280;29616;51.950;8.572;2023-04-04T10:44:14;101314.78;;;12.98;43.29
7441;BME280;29616;51.950;8.572;2023-04-04T10:46:47;101310.00;;;13.00;43.33
7441;BME280;29616;51.950;8.572;2023-04-04T10:49:19;101292.94;;;13.36;43.13
7441;BME280;29616;51.950;8.572;2023-04-04T10:51:50;101298.97;;;13.21;46.07
7441;BME280;29616;51.950;8.572;2023-04-04T10:54:24;101284.28;;;13.98;45.45
7441;BME280;29616;51.950;8.572;2023-04-04T10:56:55;101290.75;;;14.82;44.63
7441;BME280;29616;51.950;8.572;2023-04-04T10:59:28;101285.72;;;14.31;44.24
7441;BME280;29616;51.950;8.572;2023-04-04T11:01:59;101281.69;;;13.78;43.89
7441;BME280;29616;51.950;8.572;2023-04-04T11:04:31;101274.59;;;13.66;44.71
7441;BME280;29616;51.950;8.572;2023-04-04T11:07:06;101279.91;;;13.29;45.55
7441;BME280;29616;51.950;8.572;2023-04-04T11:09:52;101280.75;;;12.80;46.70
7441;BME280;29616;51.950;8.572;2023-04-04T11:12:28;101270.19;;;12.36;46.62
7441;BME280;29616;51.950;8.572;2023-04-04T11:15:08;101270.44;;;12.02;47.91
7441;BME280;29616;51.950;8.572;2023-04-04T11:17:52;101270.72;;;12.30;46.91
7441;BME280;29616;51.950;8.572;2023-04-04T11:20:23;101273.66;;;12.68;46.37
7441;BME280;29616;51.950;8.572;2023-04-04T11:23:05;101265.69;;;12.65;46.94
7441;BME280;29616;51.950;8.572;2023-04-04T11:25:40;101262.84;;;12.76;47.27
7441;BME280;29616;51.950;8.572;2023-04-04T11:28:12;101262.06;;;13.04;46.17
7441;BME280;29616;51.950;8.572;2023-04-04T11:30:45;101255.50;;;13.16;44.83
7441;BME280;29616;51.950;8.572;2023-04-04T11:33:24;101255.34;;;13.18;44.73
7441;BME280;29616;51.950;8.572;2023-04-04T11:36:02;101252.78;;;13.35;44.16
7441;BME280;29616;51.950;8.572;2023-04-04T11:38:34;101254.94;;;13.80;44.95
7441;BME280;29616;51.950;8.572;2023-04-04T11:41:05;101249.31;;;13.62;45.91
7441;BME280;29616;51.950;8.572;2023-04-04T11:43:43;101230.38;;;13.40;46.03
7441;BME280;29616;51.950;8.572;2023-04-04T11:46:15;101232.97;;;13.42;47.03
7441;BME280;29616;51.950;8.572;2023-04-04T11:48:44;101233.56;;;13.35;47.11
7441;BME280;29616;51.950;8.572;2023-04-04T11:51:15;101234.97;;;13.68;46.36
7441;BME280;29616;51.950;8.572;2023-04-04T11:53:46;101223.34;;;14.03;47.71
7441;BME280;29616;51.950;8.572;2023-04-04T11:56:17;101212.72;;;13.71;47.09
7441;BME280;29616;51.950;8.572;2023-04-04T11:58:47;101220.09;;;13.80;47.82
7441;BME280;29616;51.950;8.572;2023-04-04T12:01:32;101216.47;;;13.80;46.72
7441;BME280;29616;51.950;8.572;2023-04-04T12:04:01;101207.88;;;14.12;45.39
7441;BME280;29616;51.950;8.572;2023-04-04T12:06:33;101216.34;;;14.37;44.25
7441;BME280;29616;51.950;8.572;2023-04-04T12:09:04;101208.97;;;14.28;43.95
7441;BME280;29616;51.950;8.572;2023-04-04T12:11:34;101199.84;;;14.37;44.77
7441;BME280;29616;51.950;8.572;2023-04-04T12:14:04;101213.63;;;14.65;44.47
7441;BME280;29616;51.950;8.572;2023-04-04T12:16:36;101210.16;;;14.63;43.63
7441;BME280;29616;51.950;8.572;2023-04-04T12:19:05;101202.97;;;14.52;43.83
7441;BME280;29616;51.950;8.572;2023-04-04T12:21:34;101208.63;;;14.78;45.30
7441;BME280;29616;51.950;8.572;2023-04-04T12:24:03;101208.91;;;14.75;43.48
7441;BME280;29616;51.950;8.572;2023-04-04T12:26:31;101210.06;;;14.82;43.38
7441;BME280;29616;51.950;8.572;2023-04-04T12:29:02;101195.06;;;14.67;44.19
7441;BME280;29616;51.950;8.572;2023-04-04T12:31:34;101187.66;;;14.40;43.41
7441;BME280;29616;51.950;8.572;2023-04-04T12:34:03;101180.41;;;13.92;43.77
7441;BME280;29616;51.950;8.572;2023-04-04T12:36:35;101184.91;;;13.84;43.98
7441;BME280;29616;51.950;8.572;2023-04-04T12:39:07;101179.41;;;13.84;44.14
7441;BME280;29616;51.950;8.572;2023-04-04T12:41:46;101186.63;;;13.94;44.36
7441;BME280;29616;51.950;8.572;2023-04-04T12:44:25;101179.41;;;13.84;45.01
7441;BME280;29616;51.950;8.572;2023-04-04T12:46:57;101176.78;;;14.48;44.78
7441;BME280;29616;51.950;8.572;2023-04-04T12:49:27;101168.78;;;14.82;43.33
7441;BME280;29616;51.950;8.572;2023-04-04T12:51:59;101171.63;;;15.25;43.39
7441;BME280;29616;51.950;8.572;2023-04-04T12:54:31;101155.53;;;15.30;43.02
7441;BME280;29616;51.950;8.572;2023-04-04T12:57:02;101157.19;;;15.41;41.76
7441;BME280;29616;51.950;8.572;2023-04-04T12:59:34;101164.59;;;14.78;42.79
7441;BME280;29616;51.950;8.572;2023-04-04T13:02:06;101154.00;;;15.36;40.40
7441;BME280;29616;51.950;8.572;2023-04-04T13:04:35;101139.94;;;15.56;40.53
7441;BME280;29616;51.950;8.572;2023-04-04T13:07:19;101140.31;;;14.91;41.69
7441;BME280;29616;51.950;8.572;2023-04-04T13:09:52;101149.44;;;14.91;41.32
7441;BME280;29616;51.950;8.572;2023-04-04T13:12:21;101144.81;;;15.09;40.76
7441;BME280;29616;51.950;8.572;2023-04-04T13:15:03;101142.66;;;14.68;42.11
7441;BME280;29616;51.950;8.572;2023-04-04T13:17:44;101141.84;;;15.03;42.25
7441;BME280;29616;51.950;8.572;2023-04-04T13:20:15;101133.97;;;15.08;40.70